createdAt,value
2022-12-27T00:02:24.092Z,0.20
2022-12-27T00:04:51.356Z,0.15
2022-12-27T00:07:18.609Z,0.10
2022-12-27T00:09:45.761Z,0.10
2022-12-27T00:12:12.919Z,0.45
2022-12-27T00:14:40.154Z,0.10
2022-12-27T00:17:07.346Z,0.20
2022-12-27T00:19:34.395Z,0.40
2022-12-27T00:22:01.841Z,0.15
2022-12-27T00:24:29.076Z,0.43
2022-12-27T00:26:56.188Z,0.28
2022-12-27T00:29:23.315Z,0.40
2022-12-27T00:31:50.498Z,0.17
2022-12-27T00:34:17.674Z,0.47
2022-12-27T00:36:44.801Z,0.22
2022-12-27T00:39:12.232Z,0.32
2022-12-27T00:41:39.736Z,0.20
2022-12-27T00:44:06.860Z,0.00
2022-12-27T00:46:33.940Z,0.70
2022-12-27T00:49:01.017Z,0.22
2022-12-27T00:51:28.073Z,0.22
2022-12-27T00:53:55.936Z,0.20
2022-12-27T00:56:29.489Z,1.08
2022-12-27T00:58:59.220Z,0.10
2022-12-27T01:01:29.506Z,0.32
2022-12-27T01:03:58.011Z,0.10
2022-12-27T01:06:32.261Z,0.40
2022-12-27T01:09:01.591Z,0.52
2022-12-27T01:11:29.446Z,0.17
2022-12-27T01:13:59.929Z,0.20
2022-12-27T01:16:29.438Z,0.82
2022-12-27T01:18:57.380Z,0.20
2022-12-27T01:21:26.094Z,0.40
2022-12-27T01:23:53.317Z,0.55
2022-12-27T01:26:22.820Z,0.25
2022-12-27T01:28:50.625Z,0.30
2022-12-27T01:31:22.949Z,0.30
2022-12-27T01:33:54.480Z,0.10
2022-12-27T01:36:23.995Z,0.20
2022-12-27T01:38:51.513Z,0.50
2022-12-27T01:41:49.649Z,0.40
2022-12-27T01:44:38.767Z,0.40
2022-12-27T01:47:49.640Z,0.50
2022-12-27T01:53:42.963Z,0.65
2022-12-27T01:56:25.872Z,0.28
2022-12-27T01:59:09.972Z,0.30
2022-12-27T02:01:43.794Z,0.88
2022-12-27T02:04:15.926Z,0.50
2022-12-27T02:06:43.345Z,1.13
2022-12-27T02:09:51.249Z,0.35
2022-12-27T02:12:20.464Z,0.47
2022-12-27T02:14:49.964Z,0.32
2022-12-27T02:17:27.560Z,0.43
2022-12-27T02:20:14.694Z,0.98
2022-12-27T02:23:15.363Z,0.30
2022-12-27T02:26:15.687Z,1.60
2022-12-27T02:29:16.885Z,0.43
2022-12-27T02:32:15.883Z,0.20
2022-12-27T02:35:25.795Z,0.25
2022-12-27T02:38:04.125Z,0.75
2022-12-27T02:40:51.586Z,0.85
2022-12-27T02:43:37.502Z,0.40
2022-12-27T02:46:41.895Z,0.88
2022-12-27T02:49:48.709Z,0.47
2022-12-27T02:52:50.062Z,0.90
2022-12-27T02:56:28.925Z,0.60
2022-12-27T02:58:58.442Z,0.88
2022-12-27T03:02:25.811Z,0.50
2022-12-27T03:05:29.492Z,0.90
2022-12-27T03:08:11.799Z,0.45
2022-12-27T03:11:07.967Z,0.70
2022-12-27T03:14:16.744Z,0.85
2022-12-27T03:16:57.069Z,0.38
2022-12-27T03:19:55.385Z,0.95
2022-12-27T03:22:44.817Z,0.45
2022-12-27T03:25:29.249Z,0.10
2022-12-27T03:28:25.194Z,1.15
2022-12-27T03:31:19.677Z,0.82
2022-12-27T03:33:49.328Z,0.68
2022-12-27T03:36:41.053Z,0.73
2022-12-27T03:39:20.886Z,1.30
2022-12-27T03:42:24.982Z,0.40
2022-12-27T03:44:52.793Z,0.57
2022-12-27T03:47:50.230Z,0.30
2022-12-27T03:50:25.839Z,0.77
2022-12-27T03:53:12.247Z,0.98
2022-12-27T03:55:39.614Z,1.35
2022-12-27T03:58:06.961Z,0.65
2022-12-27T04:00:34.199Z,0.32
2022-12-27T04:03:01.489Z,0.90
2022-12-27T04:05:29.204Z,0.70
2022-12-27T04:08:14.726Z,0.50
2022-12-27T04:11:00.589Z,1.00
2022-12-27T04:13:46.287Z,0.60
2022-12-27T04:16:32.116Z,0.90
2022-12-27T04:19:17.919Z,0.65
2022-12-27T04:22:03.463Z,0.52
2022-12-27T04:24:49.338Z,0.50
2022-12-27T04:27:34.850Z,1.02
2022-12-27T04:30:20.674Z,1.20
2022-12-27T04:33:06.655Z,0.98
2022-12-27T04:35:33.700Z,0.57
2022-12-27T04:38:00.766Z,0.57
2022-12-27T04:40:46.567Z,0.22
2022-12-27T04:43:32.349Z,0.80
2022-12-27T04:46:18.267Z,0.40
2022-12-27T04:49:04.086Z,0.80
2022-12-27T04:51:49.856Z,3.20
2022-12-27T04:54:43.011Z,0.43
2022-12-27T04:57:10.183Z,0.32
2022-12-27T04:59:56.117Z,0.75
2022-12-27T05:02:23.570Z,0.35
2022-12-27T05:04:51.051Z,0.88
2022-12-27T05:07:36.849Z,0.60
2022-12-27T05:10:24.840Z,0.50
2022-12-27T05:13:10.808Z,1.08
2022-12-27T05:15:37.891Z,0.70
2022-12-27T05:18:05.663Z,0.60
2022-12-27T05:20:35.373Z,1.13
2022-12-27T05:23:21.234Z,0.60
2022-12-27T05:25:48.421Z,1.20
2022-12-27T05:28:15.760Z,1.42
2022-12-27T05:30:44.346Z,1.70
2022-12-27T05:33:12.046Z,0.80
2022-12-27T05:35:40.020Z,0.80
2022-12-27T05:38:07.447Z,1.35
2022-12-27T05:40:34.754Z,0.80
2022-12-27T05:43:03.356Z,0.85
2022-12-27T05:45:30.982Z,0.88
2022-12-27T05:47:59.982Z,2.20
2022-12-27T05:50:27.616Z,0.60
2022-12-27T05:52:56.024Z,0.85
2022-12-27T05:55:23.161Z,1.42
2022-12-27T05:57:50.298Z,0.70
2022-12-27T06:00:17.710Z,1.38
2022-12-27T06:02:44.925Z,0.77
2022-12-27T06:05:13.094Z,1.25
2022-12-27T06:07:40.375Z,0.70
2022-12-27T06:10:09.551Z,0.88
2022-12-27T06:12:37.327Z,1.17
2022-12-27T06:15:06.962Z,0.30
2022-12-27T06:17:34.282Z,0.70
2022-12-27T06:20:01.275Z,0.57
2022-12-27T06:22:28.360Z,1.65
2022-12-27T06:24:55.581Z,1.08
2022-12-27T06:27:22.633Z,1.55
2022-12-27T06:29:49.903Z,0.63
2022-12-27T06:32:17.850Z,1.40
2022-12-27T06:34:45.671Z,0.63
2022-12-27T06:37:12.910Z,0.93
2022-12-27T06:39:40.047Z,1.05
2022-12-27T06:42:07.439Z,0.98
2022-12-27T06:44:34.613Z,0.50
2022-12-27T06:47:02.117Z,1.02
2022-12-27T06:49:29.495Z,1.30
2022-12-27T06:51:59.809Z,1.02
2022-12-27T06:54:27.536Z,0.70
2022-12-27T06:56:56.397Z,1.02
2022-12-27T06:59:24.381Z,0.80
2022-12-27T07:01:51.622Z,0.98
2022-12-27T07:04:18.848Z,0.90
2022-12-27T07:06:45.897Z,1.27
2022-12-27T07:09:12.971Z,0.40
2022-12-27T07:11:40.115Z,0.65
2022-12-27T07:14:10.316Z,0.75
2022-12-27T07:16:38.039Z,1.17
2022-12-27T07:19:05.454Z,1.02
2022-12-27T07:21:32.855Z,0.85
2022-12-27T07:24:00.008Z,0.70
2022-12-27T07:26:30.365Z,1.08
2022-12-27T07:29:00.738Z,0.38
2022-12-27T07:31:32.447Z,1.63
2022-12-27T07:34:03.054Z,1.33
2022-12-27T07:36:38.323Z,1.75
2022-12-27T07:39:07.252Z,1.27
2022-12-27T07:41:34.670Z,0.70
2022-12-27T07:44:02.358Z,1.30
2022-12-27T07:46:29.644Z,2.22
2022-12-27T07:48:58.128Z,1.13
2022-12-27T07:51:26.659Z,1.25
2022-12-27T07:53:54.999Z,1.40
2022-12-27T07:56:27.438Z,0.68
2022-12-27T07:58:57.584Z,1.55
2022-12-27T08:01:28.318Z,1.50
2022-12-27T08:03:56.255Z,1.45
2022-12-27T08:06:34.456Z,1.80
2022-12-27T08:09:06.513Z,2.08
2022-12-27T08:11:34.236Z,1.45
2022-12-27T08:14:01.372Z,1.63
2022-12-27T08:16:28.583Z,2.50
2022-12-27T08:18:56.385Z,12.80
2022-12-27T08:21:24.025Z,29.25
2022-12-27T08:23:51.311Z,21.85
2022-12-27T08:26:18.456Z,21.10
2022-12-27T08:28:45.584Z,28.27
2022-12-27T08:31:14.393Z,16.45
2022-12-27T08:33:43.166Z,11.50
2022-12-27T08:38:59.913Z,10.48
2022-12-27T08:41:27.164Z,77.20
2022-12-27T08:43:54.226Z,40.28
2022-12-27T08:46:21.765Z,21.25
2022-12-27T08:48:49.874Z,15.45
2022-12-27T08:51:30.009Z,15.70
2022-12-27T08:53:58.887Z,8.15
2022-12-27T08:56:27.365Z,6.97
2022-12-27T08:58:54.497Z,4.40
2022-12-27T09:01:21.733Z,3.88
2022-12-27T09:03:49.283Z,2.50
2022-12-27T09:06:23.796Z,2.53
2022-12-27T09:08:52.323Z,3.05
2022-12-27T09:11:26.326Z,3.38
2022-12-27T09:13:53.446Z,2.60
2022-12-27T09:16:27.678Z,2.42
2022-12-27T09:18:58.408Z,1.48
2022-12-27T09:21:29.174Z,1.75
2022-12-27T09:23:56.667Z,1.55
2022-12-27T09:26:28.494Z,1.08
2022-12-27T09:31:24.887Z,2.17
2022-12-27T09:33:53.004Z,1.80
2022-12-27T09:36:24.332Z,2.75
2022-12-27T09:38:53.206Z,3.55
2022-12-27T09:44:46.734Z,2.00
2022-12-27T09:47:33.023Z,1.67
2022-12-27T09:50:15.247Z,1.23
2022-12-27T09:52:48.126Z,2.97
2022-12-27T09:55:24.243Z,2.95
2022-12-27T09:57:57.994Z,2.25
2022-12-27T10:00:34.317Z,0.93
2022-12-27T10:03:07.105Z,1.13
2022-12-27T10:05:38.249Z,1.17
2022-12-27T10:08:37.646Z,1.00
2022-12-27T10:11:34.757Z,1.02
2022-12-27T10:14:23.740Z,0.63
2022-12-27T10:17:02.571Z,1.38
2022-12-27T10:19:59.507Z,0.30
2022-12-27T10:22:38.995Z,0.57
2022-12-27T10:25:14.178Z,1.58
2022-12-27T10:27:42.028Z,0.68
2022-12-27T10:30:21.234Z,1.85
2022-12-27T10:32:49.358Z,1.15
2022-12-27T10:35:20.361Z,0.80
2022-12-27T10:37:49.619Z,1.83
2022-12-27T10:40:35.304Z,1.30
2022-12-27T10:43:17.483Z,0.73
2022-12-27T10:45:44.642Z,1.70
2022-12-27T10:48:20.888Z,1.00
2022-12-27T10:50:53.975Z,0.90
2022-12-27T10:53:52.761Z,1.50
2022-12-27T10:56:34.671Z,2.85
2022-12-27T11:01:46.791Z,2.97
2022-12-27T11:04:24.914Z,1.92
2022-12-27T11:07:15.810Z,1.95
2022-12-27T11:09:50.880Z,0.98
2022-12-27T11:12:28.848Z,1.38
2022-12-27T11:15:13.926Z,1.70
2022-12-27T11:18:00.700Z,0.68
2022-12-27T11:20:34.054Z,1.30
2022-12-27T11:23:10.007Z,0.82
2022-12-27T11:26:02.440Z,1.27
2022-12-27T11:28:44.846Z,0.75
2022-12-27T11:31:36.711Z,1.80
2022-12-27T11:34:29.976Z,0.88
2022-12-27T11:37:17.333Z,1.88
2022-12-27T11:40:12.969Z,1.25
2022-12-27T11:42:45.932Z,0.60
2022-12-27T11:45:21.876Z,1.17
2022-12-27T11:47:56.974Z,1.42
2022-12-27T11:51:19.686Z,1.10
2022-12-27T11:54:43.612Z,0.55
2022-12-27T11:57:25.223Z,1.15
2022-12-27T12:00:12.617Z,3.47
2022-12-27T12:03:20.224Z,1.42
2022-12-27T12:06:34.294Z,0.93
2022-12-27T12:09:28.629Z,1.02
2022-12-27T12:12:34.236Z,1.85
2022-12-27T12:15:39.043Z,1.10
2022-12-27T12:18:24.187Z,1.13
2022-12-27T12:21:28.240Z,0.98
2022-12-27T12:24:36.724Z,0.77
2022-12-27T12:27:37.189Z,1.15
2022-12-27T12:30:31.709Z,5.00
2022-12-27T12:34:00.781Z,2.13
2022-12-27T12:36:43.942Z,2.70
2022-12-27T12:39:41.171Z,2.58
2022-12-27T12:42:42.899Z,3.92
2022-12-27T12:45:18.668Z,16.45
2022-12-27T12:48:30.973Z,8.25
2022-12-27T12:51:53.538Z,9.55
2022-12-27T12:58:11.833Z,5.22
2022-12-27T13:01:29.071Z,5.47
2022-12-27T13:04:07.994Z,5.78
2022-12-27T13:07:04.694Z,6.28
2022-12-27T13:09:59.066Z,9.93
2022-12-27T13:12:52.799Z,9.52
2022-12-27T13:16:00.731Z,18.73
2022-12-27T13:18:35.816Z,15.18
2022-12-27T13:21:53.347Z,43.75
2022-12-27T13:24:39.531Z,10.48
2022-12-27T13:27:35.456Z,7.07
2022-12-27T13:30:34.346Z,3.50
2022-12-27T13:33:04.125Z,3.22
2022-12-27T13:36:01.767Z,2.40
2022-12-27T13:38:57.537Z,1.63
2022-12-27T13:42:03.199Z,7.72
2022-12-27T13:44:45.772Z,2.25
2022-12-27T13:47:12.802Z,2.10
2022-12-27T13:50:17.211Z,3.33
2022-12-27T13:52:59.839Z,1.75
2022-12-27T13:55:55.988Z,2.25
2022-12-27T13:59:13.599Z,5.03
2022-12-27T14:02:21.058Z,5.22
2022-12-27T14:05:24.490Z,2.78
2022-12-27T14:08:33.912Z,1.65
2022-12-27T14:11:01.784Z,1.05
2022-12-27T14:13:35.156Z,0.95
2022-12-27T14:16:08.523Z,2.08
2022-12-27T14:19:19.792Z,1.58
2022-12-27T14:22:09.449Z,3.67
2022-12-27T14:25:09.245Z,32.45
2022-12-27T14:28:12.587Z,37.28
2022-12-27T14:31:17.150Z,37.78
2022-12-27T14:34:02.556Z,68.40
2022-12-27T14:37:13.310Z,45.95
2022-12-27T14:40:07.688Z,25.02
2022-12-27T14:43:05.618Z,25.98
2022-12-27T14:46:01.374Z,42.03
2022-12-27T14:49:33.138Z,65.70
2022-12-27T14:52:43.334Z,35.83
2022-12-27T14:55:36.628Z,22.60
2022-12-27T14:58:09.782Z,14.07
2022-12-27T15:01:18.144Z,9.07
2022-12-27T15:04:00.146Z,6.20
2022-12-27T15:07:21.703Z,4.50
2022-12-27T15:10:33.829Z,3.55
2022-12-27T15:13:57.995Z,2.80
2022-12-27T15:17:07.254Z,2.00
2022-12-27T15:19:55.844Z,2.13
2022-12-27T15:22:45.969Z,2.30
2022-12-27T15:25:24.411Z,4.88
2022-12-27T15:28:23.311Z,4.85
2022-12-27T15:31:32.671Z,4.50
2022-12-27T15:34:12.362Z,4.47
2022-12-27T15:36:50.247Z,3.30
2022-12-27T15:39:35.633Z,3.08
2022-12-27T15:42:37.991Z,2.53
2022-12-27T15:45:38.382Z,2.75
2022-12-27T15:48:46.117Z,3.25
2022-12-27T15:51:42.986Z,2.63
2022-12-27T15:54:43.490Z,3.97
2022-12-27T15:57:37.195Z,6.35
2022-12-27T16:00:22.755Z,8.43
2022-12-27T16:02:51.217Z,11.45
2022-12-27T16:05:25.715Z,11.90
2022-12-27T16:07:58.970Z,11.68
2022-12-27T16:10:47.974Z,8.15
2022-12-27T16:13:37.653Z,8.50
2022-12-27T16:16:26.228Z,11.73
2022-12-27T16:19:53.512Z,16.42
2022-12-27T16:22:39.887Z,13.43
2022-12-27T16:25:38.990Z,9.40
2022-12-27T16:28:16.443Z,8.23
2022-12-27T16:31:02.898Z,8.35
2022-12-27T16:33:41.324Z,7.00
2022-12-27T16:36:32.040Z,7.18
2022-12-27T16:39:30.038Z,6.85
2022-12-27T16:41:57.117Z,6.32
2022-12-27T16:44:24.164Z,5.55
2022-12-27T16:47:28.045Z,3.75
2022-12-27T16:50:22.549Z,3.08
2022-12-27T16:52:58.671Z,3.35
2022-12-27T16:56:07.150Z,2.05
2022-12-27T16:58:37.711Z,1.48
2022-12-27T17:01:36.705Z,1.95
2022-12-27T17:04:04.476Z,1.80
2022-12-27T17:06:33.949Z,4.72
2022-12-27T17:09:11.131Z,2.53
2022-12-27T17:11:50.070Z,2.00
2022-12-27T17:14:26.194Z,1.65
2022-12-27T17:17:04.339Z,1.65
2022-12-27T17:19:40.454Z,1.60
2022-12-27T17:22:15.204Z,1.80
2022-12-27T17:24:45.576Z,1.88
2022-12-27T17:27:38.950Z,2.17
2022-12-27T17:30:22.607Z,2.38
2022-12-27T17:33:14.103Z,2.60
2022-12-27T17:36:20.363Z,2.80
2022-12-27T17:39:21.261Z,5.78
2022-12-27T17:42:43.032Z,8.32
2022-12-27T17:45:46.053Z,8.18
2022-12-27T17:48:28.463Z,8.07
2022-12-27T17:51:01.910Z,12.07
2022-12-27T17:53:47.872Z,10.85
2022-12-27T17:56:40.098Z,8.20
2022-12-27T17:59:14.093Z,6.85
2022-12-27T18:01:51.146Z,5.93
2022-12-27T18:04:35.306Z,8.00
2022-12-27T18:07:06.889Z,7.13
2022-12-27T18:12:26.269Z,6.68
2022-12-27T18:15:01.705Z,7.43
2022-12-27T18:17:49.293Z,6.90
2022-12-27T18:20:28.909Z,5.68
2022-12-27T18:23:02.094Z,5.93
2022-12-27T18:25:49.896Z,4.95
2022-12-27T18:28:34.384Z,5.40
2022-12-27T18:31:33.869Z,7.55
2022-12-27T18:34:07.113Z,4.40
2022-12-27T18:36:44.537Z,4.32
2022-12-27T18:39:30.203Z,4.47
2022-12-27T18:42:00.581Z,4.80
2022-12-27T18:44:39.913Z,6.13
2022-12-27T18:47:18.337Z,6.07
2022-12-27T18:49:45.846Z,6.65
2022-12-27T18:52:19.969Z,7.07
2022-12-27T18:54:47.009Z,7.18
2022-12-27T18:57:39.743Z,6.32
2022-12-27T19:00:26.585Z,6.53
2022-12-27T19:03:13.717Z,5.60
2022-12-27T19:05:56.531Z,4.28
2022-12-27T19:08:25.543Z,5.72
2022-12-27T19:10:52.763Z,4.72
2022-12-27T19:13:29.168Z,6.90
2022-12-27T19:15:57.879Z,8.88
2022-12-27T19:18:34.293Z,6.57
2022-12-27T19:21:05.361Z,7.75
2022-12-27T19:23:33.628Z,5.78
2022-12-27T19:26:17.672Z,5.70
2022-12-27T19:28:57.530Z,5.45
2022-12-27T19:31:24.749Z,6.82
2022-12-27T19:34:16.010Z,7.47
2022-12-27T19:36:45.634Z,6.63
2022-12-27T19:39:40.329Z,6.82
2022-12-27T19:42:17.810Z,5.53
2022-12-27T19:44:44.961Z,5.00
2022-12-27T19:47:14.066Z,3.88
2022-12-27T19:49:41.684Z,3.03
2022-12-27T19:52:19.339Z,3.45
2022-12-27T19:54:48.383Z,3.05
2022-12-27T19:57:15.581Z,4.05
2022-12-27T19:59:42.663Z,4.70
2022-12-27T20:02:10.465Z,4.82
2022-12-27T20:04:37.771Z,4.68
2022-12-27T20:07:05.063Z,5.22
2022-12-27T20:09:32.086Z,3.38
2022-12-27T20:11:59.249Z,3.92
2022-12-27T20:14:26.394Z,4.50
2022-12-27T20:16:53.414Z,5.43
2022-12-27T20:19:20.618Z,5.50
2022-12-27T20:21:47.860Z,5.07
2022-12-27T20:24:15.120Z,7.30
2022-12-27T20:26:43.467Z,7.30
2022-12-27T20:29:11.618Z,6.63
2022-12-27T20:31:44.574Z,5.63
2022-12-27T20:34:13.227Z,6.35
2022-12-27T20:36:41.654Z,5.65
2022-12-27T20:39:09.653Z,4.38
2022-12-27T20:41:37.121Z,4.40
2022-12-27T20:44:04.677Z,4.22
2022-12-27T20:46:31.702Z,5.30
2022-12-27T20:48:58.773Z,3.85
2022-12-27T20:51:28.617Z,7.13
2022-12-27T20:54:00.366Z,6.55
2022-12-27T20:56:27.738Z,6.00
2022-12-27T20:58:55.099Z,5.00
2022-12-27T21:01:25.867Z,5.15
2022-12-27T21:03:56.861Z,4.20
2022-12-27T21:06:27.875Z,6.90
2022-12-27T21:08:57.802Z,5.40
2022-12-27T21:11:30.451Z,5.60
2022-12-27T21:13:57.651Z,4.43
2022-12-27T21:16:31.331Z,4.50
2022-12-27T21:19:02.812Z,4.40
2022-12-27T21:21:31.667Z,4.20
2022-12-27T21:23:59.711Z,4.90
2022-12-27T21:26:33.977Z,3.33
2022-12-27T21:29:03.109Z,3.00
2022-12-27T21:31:31.844Z,2.90
2022-12-27T21:33:59.893Z,2.85
2022-12-27T21:36:32.427Z,2.97
2022-12-27T21:38:59.989Z,2.72
2022-12-27T21:41:31.099Z,2.28
2022-12-27T21:43:58.234Z,3.15
2022-12-27T21:46:32.348Z,2.97
2022-12-27T21:49:02.801Z,3.22
2022-12-27T21:51:32.662Z,3.03
2022-12-27T21:54:00.255Z,2.75
2022-12-27T21:56:27.960Z,2.58
2022-12-27T21:58:55.629Z,3.00
2022-12-27T22:01:49.540Z,5.25
2022-12-27T22:04:18.273Z,2.90
2022-12-27T22:06:47.429Z,3.40
2022-12-27T22:09:15.644Z,3.90
2022-12-27T22:11:42.712Z,3.90
2022-12-27T22:14:10.322Z,3.70
2022-12-27T22:16:39.495Z,4.25
2022-12-27T22:19:12.166Z,3.80
2022-12-27T22:21:40.402Z,2.28
2022-12-27T22:24:10.410Z,2.55
2022-12-27T22:26:37.890Z,2.72
2022-12-27T22:29:06.495Z,2.75
2022-12-27T22:31:38.232Z,2.10
2022-12-27T22:34:06.635Z,2.92
2022-12-27T22:36:34.630Z,2.65
2022-12-27T22:39:02.767Z,2.55
2022-12-27T22:41:32.968Z,2.35
2022-12-27T22:44:03.752Z,2.70
2022-12-27T22:46:58.779Z,2.53
2022-12-27T22:49:20.049Z,3.13
2022-12-27T22:51:47.130Z,3.65
2022-12-27T22:54:14.330Z,3.22
2022-12-27T22:56:42.948Z,3.17
2022-12-27T22:59:13.829Z,3.95
2022-12-27T23:01:42.916Z,4.72
2022-12-27T23:04:13.426Z,4.60
2022-12-27T23:06:41.574Z,4.25
2022-12-27T23:09:09.611Z,4.13
2022-12-27T23:11:41.001Z,4.60
2022-12-27T23:16:47.659Z,3.45
2022-12-27T23:19:18.659Z,2.72
2022-12-27T23:21:46.390Z,4.07
2022-12-27T23:24:14.604Z,4.25
2022-12-27T23:26:42.276Z,3.92
2022-12-27T23:29:13.100Z,4.47
2022-12-27T23:31:55.559Z,4.88
2022-12-27T23:34:29.266Z,4.47
2022-12-27T23:37:01.210Z,4.28
2022-12-27T23:39:29.124Z,4.32
2022-12-27T23:41:56.297Z,3.33
2022-12-27T23:44:33.372Z,4.95
2022-12-27T23:47:05.756Z,4.22
2022-12-27T23:49:33.773Z,3.85
2022-12-27T23:52:01.109Z,4.10
2022-12-27T23:54:28.279Z,4.20
2022-12-27T23:56:55.434Z,4.80
2022-12-27T23:59:22.654Z,5.90
